Time;durP1;ratioP1;P1;durP2;ratioP2;P2;SDS_P1;SDS_P2;PMS_P1;PMS_P2;Temp;Humidity;BMP_temperature;BMP_pressure;BME280_temperature;BME280_humidity;BME280_pressure;Samples;Min_cycle;Max_cycle;Signal;HPM_P1;HPM_P2
2022/10/20 00:03:06;;;;;;;19.93;11.73;;;9.10;42.00;;;;;;5078142;28;20224;-80
2022/10/20 00:19:00;;;;;;;24.17;10.83;;;9.00;41.90;;;;;;5092235;28;20384;-85
2022/10/20 00:28:09;;;;;;;23.60;10.90;;;9.00;41.90;;;;;;5075750;28;20459;-85
2022/10/20 00:34:49;;;;;;;19.97;10.70;;;8.90;41.90;;;;;;5087910;28;20268;-80
2022/10/20 00:44:01;;;;;;;19.00;10.70;;;8.90;41.80;;;;;;5088557;28;20903;-85
2022/10/20 00:46:40;;;;;;;28.00;10.50;;;8.90;41.90;;;;;;5087589;28;20472;-85
2022/10/20 00:49:26;;;;;;;24.20;10.53;;;8.90;41.90;;;;;;5074264;28;20916;-85
2022/10/20 00:55:18;;;;;;;24.83;10.30;;;8.90;41.90;;;;;;5075800;28;20964;-85
2022/10/20 00:57:48;;;;;;;19.80;10.23;;;8.90;41.90;;;;;;5084468;28;20441;-85
2022/10/20 01:00:20;;;;;;;17.23;9.87;;;9.00;46.00;;;;;;5081685;28;20438;-85
2022/10/20 01:03:17;;;;;;;22.67;9.97;;;8.90;41.90;;;;;;5087748;28;21504;-85
2022/10/20 01:09:05;;;;;;;21.23;10.20;;;8.90;42.10;;;;;;5082364;28;20453;-85
2022/10/20 01:18:29;;;;;;;23.60;10.30;;;8.80;41.70;;;;;;5083591;28;20444;-85
2022/10/20 01:21:14;;;;;;;20.37;9.97;;;8.80;41.80;;;;;;5088829;28;20424;-85
2022/10/20 01:24:13;;;;;;;23.23;10.17;;;8.70;42.00;;;;;;5081803;28;20490;-85
2022/10/20 01:30:11;;;;;;;17.93;10.13;;;8.70;41.70;;;;;;5083809;28;20788;-80
2022/10/20 01:36:26;;;;;;;18.70;9.93;;;8.60;41.80;;;;;;5086654;28;20489;-80
2022/10/20 01:42:19;;;;;;;22.90;9.60;;;8.60;41.60;;;;;;5084740;28;20416;-80
2022/10/20 01:45:23;;;;;;;31.80;10.53;;;8.60;41.90;;;;;;5079299;28;20531;-85
2022/10/20 01:47:50;;;;;;;15.80;9.23;;;8.50;41.50;;;;;;5083117;28;20528;-85
2022/10/20 01:50:27;;;;;;;16.10;9.73;;;8.60;45.90;;;;;;5084246;28;20763;-85
2022/10/20 01:59:51;;;;;;;20.30;9.70;;;8.60;41.50;;;;;;5074727;28;20449;-85
2022/10/20 02:06:31;;;;;;;16.23;10.30;;;8.50;41.50;;;;;;5074053;28;20411;-85
2022/10/20 02:09:49;;;;;;;22.90;9.50;;;8.50;41.50;;;;;;5087124;28;20482;-85
2022/10/20 02:15:42;;;;;;;18.40;9.43;;;8.50;41.50;;;;;;5086004;28;20785;-86
2022/10/20 02:18:37;;;;;;;18.27;9.60;;;8.50;41.80;;;;;;5075245;28;20500;-85
2022/10/20 02:24:30;;;;;;;15.57;9.47;;;8.40;41.50;;;;;;5077935;28;20384;-86
2022/10/20 02:30:19;;;;;;;25.60;11.07;;;8.40;41.50;;;;;;5082029;28;20949;-81
2022/10/20 02:32:51;;;;;;;18.53;10.30;;;8.40;41.50;;;;;;5080158;28;20417;-80
2022/10/20 02:38:39;;;;;;;22.73;10.20;;;8.40;41.50;;;;;;5085428;28;20396;-80
2022/10/20 02:44:32;;;;;;;24.10;9.50;;;8.30;41.40;;;;;;5077373;28;20228;-80
2022/10/20 02:54:13;;;;;;;22.03;9.73;;;8.40;41.40;;;;;;5082587;28;20408;-80
2022/10/20 02:57:13;;;;;;;13.90;9.93;;;8.30;41.30;;;;;;5083746;28;20424;-80
2022/10/20 03:00:02;;;;;;;21.33;9.67;;;8.30;41.40;;;;;;5083702;28;20894;-80
2022/10/20 03:12:34;;;;;;;19.90;10.93;;;8.30;41.50;;;;;;5077543;28;20368;-85
2022/10/20 03:15:00;;;;;;;28.60;10.40;;;8.30;41.40;;;;;;5075894;28;20935;-86
2022/10/20 03:21:02;;;;;;;24.20;10.17;;;8.40;41.50;;;;;;5076739;28;20185;-80
2022/10/20 03:23:38;;;;;;;23.00;10.60;;;8.40;41.50;;;;;;5080379;28;20408;-80
2022/10/20 03:36:10;;;;;;;26.10;10.57;;;8.40;41.60;;;;;;5079591;28;20477;-80
2022/10/20 03:41:57;;;;;;;21.57;9.93;;;8.40;41.50;;;;;;5080108;28;20383;-80
2022/10/20 03:44:26;;;;;;;33.63;11.43;;;8.40;41.50;;;;;;5082921;28;20787;-80
2022/10/20 03:46:56;;;;;;;22.53;10.67;;;8.40;41.60;;;;;;5082977;28;20210;-85
2022/10/20 03:49:26;;;;;;;22.00;10.60;;;8.50;41.50;;;;;;5089203;28;20433;-86
2022/10/20 03:51:52;;;;;;;29.00;11.53;;;8.50;41.60;;;;;;5089036;28;20462;-86
2022/10/20 04:01:03;;;;;;;30.57;11.27;;;8.60;41.60;;;;;;5076616;28;20991;-81
2022/10/20 04:10:20;;;;;;;19.20;10.40;;;8.60;41.60;;;;;;5076265;28;21029;-75
2022/10/20 04:12:46;;;;;;;19.43;10.60;;;8.60;41.60;;;;;;5075758;28;20424;-78
2022/10/20 04:15:31;;;;;;;30.03;11.70;;;8.60;41.70;;;;;;5082678;28;20412;-76
2022/10/20 04:18:02;;;;;;;23.83;11.30;;;8.60;41.60;;;;;;5077015;28;20171;-76
2022/10/20 04:20:28;;;;;;;20.60;10.63;;;8.60;41.70;;;;;;5084344;28;20436;-76
2022/10/20 04:23:14;;;;;;;21.47;10.37;;;8.60;41.90;;;;;;5084372;28;20428;-76
2022/10/20 04:25:47;;;;;;;19.23;10.10;;;8.70;41.80;;;;;;5085465;28;20182;-76
2022/10/20 04:28:50;;;;;;;21.77;9.80;;;8.70;41.70;;;;;;5076606;28;20456;-76
2022/10/20 04:31:43;;;;;;;18.00;11.73;;;8.70;41.70;;;;;;5089898;28;20922;-77
2022/10/20 04:34:09;;;;;;;28.83;10.90;;;8.70;41.70;;;;;;5075595;28;20405;-78
2022/10/20 04:36:44;;;;;;;25.70;11.03;;;8.70;41.70;;;;;;5076305;28;20439;-78
2022/10/20 04:39:26;;;;;;;20.83;10.90;;;8.70;41.70;;;;;;5087906;28;20514;-78
2022/10/20 04:42:13;;;;;;;21.13;10.20;;;8.70;41.80;;;;;;5095190;28;20812;-78
2022/10/20 04:44:50;;;;;;;17.20;10.70;;;8.80;41.80;;;;;;5087935;28;20433;-78
2022/10/20 04:47:16;;;;;;;20.37;10.40;;;8.80;41.90;;;;;;5088601;28;20597;-75
2022/10/20 04:49:44;;;;;;;17.70;10.77;;;8.80;41.80;;;;;;5082468;28;20874;-75
2022/10/20 04:52:14;;;;;;;15.00;10.60;;;8.80;41.80;;;;;;5086604;28;20183;-76
2022/10/20 04:54:40;;;;;;;15.43;10.00;;;8.80;41.80;;;;;;5085246;28;20413;-75
2022/10/20 04:57:20;;;;;;;15.17;9.80;;;8.80;41.80;;;;;;5081329;28;20816;-76
2022/10/20 04:59:50;;;;;;;26.40;10.50;;;8.70;41.70;;;;;;5080076;28;20517;-76
2022/10/20 05:02:16;;;;;;;18.50;10.57;;;8.70;41.80;;;;;;5090406;28;20782;-76
2022/10/20 05:04:50;;;;;;;23.47;10.30;;;8.70;41.60;;;;;;5087301;28;20898;-76
2022/10/20 05:07:29;;;;;;;15.67;10.37;;;8.70;36.60;;;;;;5076382;28;20544;-76
2022/10/20 05:09:56;;;;;;;14.47;10.13;;;8.70;33.90;;;;;;5088476;28;20414;-75
2022/10/20 05:12:32;;;;;;;19.13;10.60;;;8.70;28.20;;;;;;5079936;28;20743;-76
2022/10/20 05:15:03;;;;;;;18.73;11.03;;;8.60;30.00;;;;;;5088505;28;20764;-74
2022/10/20 05:17:44;;;;;;;20.03;9.50;;;8.60;27.40;;;;;;5085679;28;20520;-76
2022/10/20 05:20:20;;;;;;;27.43;10.40;;;8.60;26.90;;;;;;5084441;28;20463;-75
2022/10/20 05:23:02;;;;;;;21.47;9.90;;;8.60;26.70;;;;;;5076066;28;20756;-76
2022/10/20 05:25:28;;;;;;;17.60;9.70;;;8.60;27.10;;;;;;5092639;28;20961;-75
2022/10/20 05:28:26;;;;;;;32.20;10.60;;;8.60;25.60;;;;;;5079401;28;20453;-74
2022/10/20 05:31:15;;;;;;;34.53;10.40;;;8.60;26.80;;;;;;5075670;28;20179;-75
2022/10/20 05:33:46;;;;;;;16.93;10.77;;;8.60;29.40;;;;;;5078148;28;20490;-74
2022/10/20 05:46:18;;;;;;;17.80;11.17;;;8.60;37.40;;;;;;5074004;28;20427;-78
2022/10/20 05:52:08;;;;;;;21.90;11.00;;;8.70;41.70;;;;;;5074090;28;20427;-75
2022/10/20 05:55:03;;;;;;;20.00;11.20;;;8.70;41.70;;;;;;5075571;28;20413;-76
2022/10/20 05:57:38;;;;;;;21.20;11.03;;;8.70;41.90;;;;;;5079662;28;21273;-77
2022/10/20 06:00:04;;;;;;;15.37;10.90;;;8.70;36.80;;;;;;5076914;28;20884;-76
2022/10/20 06:06:21;;;;;;;21.10;10.90;;;8.70;41.70;;;;;;5088297;28;20473;-84
2022/10/20 06:08:51;;;;;;;18.63;11.47;;;8.80;34.40;;;;;;5076602;28;20799;-75
2022/10/20 06:11:22;;;;;;;27.20;11.90;;;8.80;31.10;;;;;;5080357;28;20508;-75
2022/10/20 06:13:47;;;;;;;19.50;11.30;;;8.80;32.10;;;;;;5096111;28;20409;-75
2022/10/20 06:16:26;;;;;;;25.43;12.03;;;8.80;34.70;;;;;;5075251;28;20463;-84
2022/10/20 06:18:53;;;;;;;21.50;12.40;;;8.90;35.70;;;;;;5080230;28;20243;-70
2022/10/20 06:21:27;;;;;;;23.17;12.20;;;8.90;33.60;;;;;;5082368;28;20490;-71
2022/10/20 06:23:54;;;;;;;25.77;12.20;;;9.00;42.00;;;;;;5073043;28;20412;-71
2022/10/20 06:26:22;;;;;;;21.50;12.43;;;9.00;46.10;;;;;;5082156;28;20925;-71
2022/10/20 06:28:51;;;;;;;22.30;13.23;;;9.00;42.00;;;;;;5079883;28;20408;-71
2022/10/20 06:31:29;;;;;;;21.57;12.10;;;9.10;42.00;;;;;;5077772;28;20425;-71
2022/10/20 06:33:55;;;;;;;24.30;12.67;;;9.20;42.20;;;;;;5085610;28;20458;-71
2022/10/20 06:36:22;;;;;;;23.33;12.57;;;9.30;36.20;;;;;;5076718;28;20876;-71
2022/10/20 06:38:54;;;;;;;19.93;12.30;;;9.40;38.10;;;;;;5078094;28;20466;-71
2022/10/20 06:41:21;;;;;;;22.43;11.83;;;9.40;36.00;;;;;;5081693;28;20433;-71
2022/10/20 06:43:46;;;;;;;25.00;12.43;;;9.50;41.70;;;;;;5073756;28;20417;-71
2022/10/20 06:46:15;;;;;;;22.93;12.30;;;9.60;42.50;;;;;;5081834;28;21128;-71
2022/10/20 06:48:41;;;;;;;21.80;13.23;;;9.70;39.50;;;;;;5083458;28;20631;-73
2022/10/20 06:51:11;;;;;;;19.40;11.80;;;9.80;30.80;;;;;;5086328;28;20458;-74
2022/10/20 06:53:38;;;;;;;21.73;11.23;;;9.90;24.90;;;;;;5078097;28;20431;-73
2022/10/20 06:56:07;;;;;;;20.67;10.30;;;9.90;22.70;;;;;;5085931;28;20425;-73
2022/10/20 06:58:34;;;;;;;25.23;11.23;;;10.00;21.60;;;;;;5078510;28;20468;-73
2022/10/20 07:01:02;;;;;;;22.20;11.37;;;10.10;20.30;;;;;;5079299;28;20417;-73
2022/10/20 07:03:28;;;;;;;20.50;11.60;;;10.20;19.10;;;;;;5074031;28;20444;-73
2022/10/20 07:05:55;;;;;;;16.93;10.40;;;10.30;17.30;;;;;;5072914;28;20405;-73
2022/10/20 07:08:22;;;;;;;20.47;12.10;;;10.40;17.00;;;;;;5077200;28;20491;-73
2022/10/20 07:10:57;;;;;;;16.27;10.73;;;10.50;14.80;;;;;;5085115;28;20437;-73
2022/10/20 07:13:22;;;;;;;17.47;10.53;;;10.50;12.10;;;;;;5078022;28;20424;-73
2022/10/20 07:15:55;;;;;;;19.20;10.73;;;10.60;5.30;;;;;;5072878;28;20794;-73
2022/10/20 07:18:21;;;;;;;22.33;11.90;;;10.70;1.00;;;;;;5078552;28;20622;-73
2022/10/20 07:20:47;;;;;;;30.43;11.77;;;10.60;1.00;;;;;;5084589;28;20432;-73
2022/10/20 07:23:12;;;;;;;24.23;11.70;;;10.70;1.00;;;;;;5077526;28;20508;-73
2022/10/20 07:25:44;;;;;;;19.40;11.60;;;10.70;1.00;;;;;;5084929;28;20417;-73
2022/10/20 07:28:10;;;;;;;18.30;11.70;;;10.80;1.00;;;;;;5089214;28;20650;-73
2022/10/20 07:30:40;;;;;;;21.97;11.23;;;10.80;1.00;;;;;;5076271;28;20429;-73
2022/10/20 07:33:08;;;;;;;20.63;11.27;;;10.90;1.00;;;;;;5080007;28;20170;-71
2022/10/20 07:35:35;;;;;;;24.80;11.20;;;11.00;1.00;;;;;;5065158;28;20529;-71
2022/10/20 07:38:01;;;;;;;22.83;12.17;;;11.10;1.00;;;;;;5088518;28;20460;-71
2022/10/20 07:40:26;;;;;;;17.90;12.20;;;11.20;1.00;;;;;;5086316;28;20908;-71
2022/10/20 07:42:53;;;;;;;17.87;11.40;;;11.30;1.00;;;;;;5089916;28;20428;-71
2022/10/20 07:45:19;;;;;;;26.03;10.70;;;11.40;1.00;;;;;;5084155;28;20693;-71
2022/10/20 07:47:44;;;;;;;19.03;11.90;;;11.50;1.00;;;;;;5079060;28;20971;-73
2022/10/20 07:50:11;;;;;;;18.00;10.27;;;11.70;1.00;;;;;;5078100;28;20504;-73
2022/10/20 07:52:38;;;;;;;24.20;12.30;;;11.80;1.00;;;;;;5076350;28;20171;-73
2022/10/20 07:55:05;;;;;;;18.27;12.07;;;11.90;1.00;;;;;;5087489;28;20420;-73
2022/10/20 07:57:31;;;;;;;20.60;12.13;;;12.20;1.00;;;;;;5075758;28;20429;-73
2022/10/20 07:59:56;;;;;;;22.53;12.03;;;12.20;1.00;;;;;;5082303;28;20512;-73
2022/10/20 08:02:22;;;;;;;18.23;10.67;;;12.40;1.00;;;;;;5089358;28;20576;-73
2022/10/20 08:04:49;;;;;;;17.00;11.10;;;12.60;1.00;;;;;;5095365;28;20174;-73
2022/10/20 08:07:15;;;;;;;28.10;12.57;;;12.50;1.00;;;;;;5078676;28;20198;-73
2022/10/20 08:09:41;;;;;;;28.30;13.13;;;12.40;1.00;;;;;;5080602;28;20440;-73
2022/10/20 08:12:07;;;;;;;26.10;12.87;;;12.50;1.00;;;;;;5088841;28;20413;-73
2022/10/20 08:14:35;;;;;;;24.10;12.77;;;12.60;1.00;;;;;;5084510;28;20174;-73
2022/10/20 08:17:02;;;;;;;18.90;12.70;;;12.70;1.00;;;;;;5077392;28;20421;-73
2022/10/20 08:19:27;;;;;;;21.40;13.07;;;12.90;1.00;;;;;;5083295;28;20738;-73
2022/10/20 08:21:53;;;;;;;22.60;14.30;;;13.00;1.00;;;;;;5081818;28;20434;-73
2022/10/20 08:24:19;;;;;;;20.70;12.23;;;13.20;1.00;;;;;;5084232;28;20179;-73
2022/10/20 08:26:45;;;;;;;20.60;13.23;;;13.20;1.00;;;;;;5077948;28;20199;-73
2022/10/20 08:29:11;;;;;;;25.70;13.30;;;13.30;1.00;;;;;;5083032;28;20171;-73
2022/10/20 08:31:38;;;;;;;21.47;13.20;;;13.30;1.00;;;;;;5084239;28;20429;-73
2022/10/20 08:34:04;;;;;;;24.43;13.70;;;13.40;1.00;;;;;;5079112;28;20437;-71
2022/10/20 08:36:38;;;;;;;19.63;12.10;;;13.60;1.00;;;;;;5077354;28;20448;-71
2022/10/20 08:45:48;;;;;;;23.93;13.33;;;13.80;1.00;;;;;;5087659;28;20439;-85
2022/10/20 08:48:20;;;;;;;21.73;14.23;;;14.00;1.00;;;;;;5085204;28;20449;-84
2022/10/20 08:57:31;;;;;;;22.97;13.50;;;14.20;1.00;;;;;;5076675;28;20888;-85
2022/10/20 09:03:31;;;;;;;24.83;14.03;;;14.20;1.00;;;;;;5075467;28;20412;-84
2022/10/20 09:12:43;;;;;;;29.13;12.90;;;14.40;1.00;;;;;;5088257;28;20391;-84
2022/10/20 09:16:02;;;;;;;17.70;11.97;;;14.50;1.00;;;;;;5091951;28;20411;-82
2022/10/20 09:25:18;;;;;;;20.70;12.90;;;15.00;1.00;;;;;;5079037;28;20423;-84
2022/10/20 09:31:21;;;;;;;27.13;13.13;;;15.40;1.00;;;;;;5092579;28;21040;-85
2022/10/20 09:37:08;;;;;;;30.97;12.30;;;15.10;1.00;;;;;;5083726;28;20978;-85
2022/10/20 09:40:14;;;;;;;18.00;11.73;;;15.00;1.00;;;;;;5083412;28;20400;-85
2022/10/20 09:46:09;;;;;;;17.77;12.17;;;15.40;1.00;;;;;;5082550;28;20447;-85
2022/10/20 09:48:56;;;;;;;22.77;11.53;;;15.70;1.00;;;;;;5074126;28;20448;-79
2022/10/20 09:51:51;;;;;;;17.50;11.60;;;16.00;1.00;;;;;;5082131;28;20382;-79
2022/10/20 09:54:27;;;;;;;27.13;12.67;;;15.90;1.00;;;;;;5078971;28;20487;-81
2022/10/20 09:57:05;;;;;;;21.23;12.53;;;15.80;1.00;;;;;;5081573;28;20899;-78
2022/10/20 10:03:08;;;;;;;20.70;11.73;;;16.20;1.00;;;;;;5085596;28;20382;-78
2022/10/20 10:08:58;;;;;;;17.90;11.40;;;16.50;1.00;;;;;;5077788;28;20410;-84
2022/10/20 10:12:08;;;;;;;20.13;11.70;;;16.70;1.00;;;;;;5084101;28;20402;-84
2022/10/20 10:15:14;;;;;;;19.60;11.57;;;16.60;1.00;;;;;;5082261;28;20408;-81
2022/10/20 10:18:22;;;;;;;22.83;12.03;;;16.60;1.00;;;;;;5074207;28;20420;-83
2022/10/20 10:21:03;;;;;;;18.13;11.57;;;16.50;1.00;;;;;;5071744;28;20425;-83
2022/10/20 10:24:20;;;;;;;21.20;12.40;;;16.20;1.00;;;;;;5076865;28;20433;-83
2022/10/20 10:30:28;;;;;;;21.43;12.80;;;16.10;1.00;;;;;;5072479;28;20964;-83
2022/10/20 10:36:56;;;;;;;24.73;12.40;;;15.90;1.00;;;;;;5082328;28;20412;-78
2022/10/20 10:39:34;;;;;;;18.17;11.40;;;15.80;1.00;;;;;;5076120;28;20429;-78
2022/10/20 10:42:34;;;;;;;19.67;12.30;;;15.80;1.00;;;;;;5078659;28;20892;-78
2022/10/20 10:45:32;;;;;;;19.50;12.17;;;15.70;1.00;;;;;;5079299;28;20392;-78
2022/10/20 10:48:26;;;;;;;23.27;13.17;;;15.60;1.00;;;;;;5078532;28;20430;-78
2022/10/20 10:51:01;;;;;;;23.67;13.07;;;15.40;1.00;;;;;;5074133;28;20471;-83
2022/10/20 10:54:20;;;;;;;18.30;12.90;;;15.20;1.00;;;;;;5080523;28;20742;-83
2022/10/20 10:57:26;;;;;;;19.90;12.90;;;15.20;1.00;;;;;;5084196;28;20398;-83
2022/10/20 11:00:32;;;;;;;28.00;13.00;;;15.10;1.00;;;;;;5086324;28;20420;-83
2022/10/20 11:03:35;;;;;;;23.27;13.60;;;15.10;1.00;;;;;;5086904;28;20411;-83
2022/10/20 11:06:38;;;;;;;25.63;13.80;;;15.10;1.00;;;;;;5087729;28;20973;-78
2022/10/20 11:09:44;;;;;;;21.97;13.17;;;15.20;1.00;;;;;;5088842;28;20464;-79
2022/10/20 11:12:39;;;;;;;28.13;12.70;;;15.30;1.00;;;;;;5083836;28;20427;-78
2022/10/20 11:15:36;;;;;;;26.50;13.23;;;15.30;1.00;;;;;;5080021;28;20396;-78
2022/10/20 11:18:31;;;;;;;18.33;11.63;;;15.40;1.00;;;;;;5082916;28;20476;-78
2022/10/20 11:20:59;;;;;;;17.33;12.03;;;15.80;1.00;;;;;;5082884;28;20491;-78
2022/10/20 11:24:02;;;;;;;18.80;11.50;;;16.10;1.00;;;;;;5093380;28;20413;-79
2022/10/20 11:26:53;;;;;;;19.33;12.00;;;16.50;1.00;;;;;;5082151;28;20472;-78
2022/10/20 11:32:43;;;;;;;20.70;11.70;;;16.80;1.00;;;;;;5085275;28;20915;-78
2022/10/20 11:35:56;;;;;;;17.60;11.27;;;16.70;1.00;;;;;;5077306;28;20764;-83
2022/10/20 11:38:52;;;;;;;19.53;10.40;;;16.80;1.00;;;;;;5082009;28;20444;-83
2022/10/20 11:44:43;;;;;;;25.57;11.30;;;16.80;1.00;;;;;;5080403;28;20895;-83
2022/10/20 11:47:13;;;;;;;25.33;11.57;;;16.80;1.00;;;;;;5090588;28;20465;-84
2022/10/20 11:53:23;;;;;;;19.00;10.50;;;16.90;1.00;;;;;;5091630;28;20394;-83
2022/10/20 11:56:12;;;;;;;18.13;11.70;;;17.00;1.00;;;;;;5076500;28;20437;-74
2022/10/20 11:59:19;;;;;;;18.43;12.10;;;17.00;1.00;;;;;;5079493;28;20400;-84
2022/10/20 12:02:02;;;;;;;19.67;12.20;;;16.90;1.00;;;;;;5049302;28;20485;-73
2022/10/20 12:04:43;;;;;;;16.63;11.33;;;16.80;1.00;;;;;;5049417;28;20440;-69
2022/10/20 12:07:15;;;;;;;24.07;11.37;;;16.80;1.00;;;;;;5045751;28;20501;-69
2022/10/20 12:09:46;;;;;;;23.27;11.57;;;16.70;1.00;;;;;;5051503;28;20433;-69
2022/10/20 12:12:24;;;;;;;18.83;11.57;;;16.60;1.00;;;;;;5041133;28;20900;-69
2022/10/20 12:14:56;;;;;;;22.50;12.40;;;16.50;1.00;;;;;;5043435;28;20397;-69
2022/10/20 12:17:25;;;;;;;25.63;12.40;;;16.50;1.00;;;;;;5045207;28;20882;-69
2022/10/20 12:19:51;;;;;;;31.93;12.37;;;16.50;1.00;;;;;;5046177;28;20424;-69
2022/10/20 12:22:17;;;;;;;19.13;11.30;;;16.50;1.00;;;;;;5043583;28;20431;-69
2022/10/20 12:25:02;;;;;;;20.13;12.13;;;16.50;1.00;;;;;;5038467;28;21092;-69
2022/10/20 12:27:29;;;;;;;27.70;11.00;;;16.50;1.00;;;;;;5040703;28;20302;-69
2022/10/20 12:30:17;;;;;;;20.40;12.00;;;16.50;1.00;;;;;;5038249;28;20575;-72
2022/10/20 12:33:08;;;;;;;17.80;11.90;;;16.40;1.00;;;;;;5048098;28;20394;-70
2022/10/20 12:36:15;;;;;;;64.53;43.13;;;16.30;1.00;;;;;;5058397;28;20437;-69
2022/10/20 12:38:43;;;;;;;24.33;16.37;;;16.20;1.00;;;;;;5007257;28;20420;-68
2022/10/20 12:41:24;;;;;;;31.00;15.50;;;16.30;1.00;;;;;;5007497;28;20399;-69
2022/10/20 12:43:57;;;;;;;24.67;15.83;;;16.40;1.00;;;;;;5011404;28;20437;-69
2022/10/20 12:46:29;;;;;;;22.43;11.77;;;16.50;1.00;;;;;;5005427;28;20438;-69
2022/10/20 12:48:58;;;;;;;18.13;10.90;;;16.40;1.00;;;;;;5003051;28;20415;-69
2022/10/20 12:51:50;;;;;;;15.20;10.60;;;16.40;1.00;;;;;;5012945;28;20525;-69
2022/10/20 12:54:32;;;;;;;22.33;10.97;;;16.40;1.00;;;;;;5001551;28;20441;-69
2022/10/20 12:57:02;;;;;;;17.83;12.13;;;16.50;1.00;;;;;;5002967;28;20412;-69
2022/10/20 12:59:28;;;;;;;18.97;12.33;;;16.40;1.00;;;;;;5006628;28;20448;-69
2022/10/20 13:02:08;;;;;;;19.27;12.03;;;16.30;1.00;;;;;;4982793;28;20497;-69
2022/10/20 13:05:04;;;;;;;20.80;11.97;;;16.20;1.00;;;;;;5008514;28;20197;-69
2022/10/20 13:07:45;;;;;;;25.77;11.77;;;16.20;1.00;;;;;;5013637;28;20462;-74
2022/10/20 13:10:30;;;;;;;20.03;12.20;;;16.20;1.00;;;;;;5009554;28;20428;-69
2022/10/20 13:13:02;;;;;;;18.63;11.97;;;16.10;1.00;;;;;;5059457;28;20490;-69
2022/10/20 13:15:33;;;;;;;30.43;12.60;;;16.00;1.00;;;;;;5076705;28;20422;-69
2022/10/20 13:18:01;;;;;;;22.53;13.00;;;16.00;1.00;;;;;;5078648;28;20417;-69
2022/10/20 13:20:38;;;;;;;21.10;11.40;;;16.00;1.00;;;;;;5086232;28;20404;-69
2022/10/20 13:23:08;;;;;;;23.10;12.07;;;16.10;1.00;;;;;;5086006;28;20415;-69
2022/10/20 13:25:44;;;;;;;19.50;12.30;;;16.10;1.00;;;;;;5086357;28;20426;-69
2022/10/20 13:28:13;;;;;;;21.93;12.40;;;16.10;1.00;;;;;;5076319;28;20456;-69
2022/10/20 13:30:57;;;;;;;19.93;12.23;;;16.10;1.00;;;;;;5089079;28;20451;-69
2022/10/20 13:33:32;;;;;;;21.30;12.30;;;16.10;1.00;;;;;;5077480;28;20392;-69
2022/10/20 13:35:58;;;;;;;17.53;11.53;;;16.10;1.00;;;;;;5087834;28;20745;-68
2022/10/20 13:38:36;;;;;;;19.53;12.33;;;16.10;1.00;;;;;;5090458;28;20475;-69
2022/10/20 13:41:18;;;;;;;20.90;12.03;;;16.20;1.00;;;;;;5096141;28;20196;-69
2022/10/20 13:44:05;;;;;;;18.30;10.97;;;16.20;1.00;;;;;;5079823;28;20780;-69
2022/10/20 13:46:42;;;;;;;16.77;10.93;;;16.20;1.00;;;;;;5083958;28;20452;-69
2022/10/20 13:49:27;;;;;;;15.80;11.63;;;16.20;1.00;;;;;;5080482;28;20408;-69
2022/10/20 13:51:57;;;;;;;25.90;12.30;;;16.10;1.00;;;;;;5086532;28;20830;-69
2022/10/20 13:54:34;;;;;;;19.73;12.10;;;16.00;1.00;;;;;;5082803;28;21017;-69
2022/10/20 13:57:01;;;;;;;20.40;12.73;;;16.00;1.00;;;;;;5075683;28;20431;-69
2022/10/20 13:59:29;;;;;;;19.60;11.60;;;15.90;1.00;;;;;;5088633;28;20440;-69
2022/10/20 14:01:57;;;;;;;22.23;13.27;;;15.90;1.00;;;;;;5081967;28;20930;-69
2022/10/20 14:04:33;;;;;;;26.33;13.33;;;15.90;1.00;;;;;;5082109;28;20527;-69
2022/10/20 14:07:11;;;;;;;23.73;11.77;;;15.80;1.00;;;;;;5083732;28;20472;-69
2022/10/20 14:09:38;;;;;;;22.63;12.53;;;15.80;1.00;;;;;;5079758;28;20389;-69
2022/10/20 14:12:07;;;;;;;21.53;13.50;;;15.80;1.00;;;;;;5076713;28;20455;-69
2022/10/20 14:14:46;;;;;;;23.87;12.17;;;15.80;1.00;;;;;;5086686;28;20424;-85
2022/10/20 14:17:21;;;;;;;18.90;12.80;;;15.80;1.00;;;;;;5073880;28;20927;-75
2022/10/20 14:20:19;;;;;;;20.57;12.20;;;15.80;1.00;;;;;;5073982;28;20414;-77
2022/10/20 14:22:46;;;;;;;28.73;12.30;;;15.80;1.00;;;;;;5083568;28;20439;-78
2022/10/20 14:25:13;;;;;;;27.10;12.67;;;15.80;1.00;;;;;;5077678;28;20477;-74
2022/10/20 14:27:39;;;;;;;25.77;12.50;;;15.70;1.00;;;;;;5087224;28;20543;-74
2022/10/20 14:30:15;;;;;;;31.23;13.83;;;15.70;1.00;;;;;;5084368;28;20728;-75
2022/10/20 14:32:48;;;;;;;22.13;14.17;;;15.70;1.00;;;;;;5087376;28;20473;-75
2022/10/20 14:35:44;;;;;;;18.77;13.87;;;15.70;1.00;;;;;;5106538;28;20404;-75
2022/10/20 14:38:24;;;;;;;20.97;12.97;;;15.80;1.00;;;;;;5090560;28;20934;-75
2022/10/20 14:40:54;;;;;;;22.43;13.03;;;15.70;1.00;;;;;;5095607;28;20428;-74
2022/10/20 14:43:26;;;;;;;22.13;13.50;;;15.60;1.00;;;;;;5088982;27;20444;-74
2022/10/20 14:45:58;;;;;;;23.00;13.60;;;15.60;1.00;;;;;;5114292;28;20955;-74
2022/10/20 14:48:31;;;;;;;24.60;13.00;;;15.60;1.00;;;;;;5097179;27;20957;-74
2022/10/20 14:51:27;;;;;;;22.53;14.27;;;15.50;1.00;;;;;;5088559;28;20386;-74
2022/10/20 14:54:27;;;;;;;25.63;15.07;;;15.50;1.00;;;;;;5028455;28;20451;-76
2022/10/20 14:57:06;;;;;;;28.23;14.80;;;15.50;1.00;;;;;;5020609;28;20473;-75
2022/10/20 15:00:01;;;;;;;31.47;16.10;;;15.40;1.00;;;;;;5031952;28;20984;-75
2022/10/20 15:02:55;;;;;;;34.50;15.60;;;15.40;1.00;;;;;;5035739;28;20418;-76
2022/10/20 15:05:25;;;;;;;25.67;15.50;;;15.40;1.00;;;;;;5026476;28;20432;-75
2022/10/20 15:07:53;;;;;;;34.03;16.20;;;15.30;1.00;;;;;;5010353;28;20928;-74
2022/10/20 15:10:23;;;;;;;25.07;15.80;;;15.20;1.00;;;;;;5017122;28;20485;-75
2022/10/20 15:12:51;;;;;;;31.20;17.00;;;15.20;1.00;;;;;;5029657;28;20502;-75
2022/10/20 15:15:34;;;;;;;31.03;17.20;;;15.20;1.00;;;;;;5026658;28;20706;-75
2022/10/20 15:18:13;;;;;;;25.67;16.13;;;15.20;1.00;;;;;;5018347;28;20843;-74
2022/10/20 15:20:44;;;;;;;27.80;17.77;;;15.20;1.00;;;;;;5026161;28;20888;-73
2022/10/20 15:23:15;;;;;;;33.27;17.17;;;15.10;1.00;;;;;;5021099;28;20455;-74
2022/10/20 15:26:00;;;;;;;30.23;16.57;;;15.10;1.00;;;;;;5013421;28;20521;-74
2022/10/20 15:28:45;;;;;;;35.20;16.77;;;15.10;1.00;;;;;;5010478;28;20517;-73
2022/10/20 15:31:21;;;;;;;29.60;17.03;;;15.00;1.00;;;;;;5061139;28;20422;-73
2022/10/20 15:33:47;;;;;;;34.43;16.87;;;15.00;1.00;;;;;;5092272;28;20437;-73
2022/10/20 15:36:18;;;;;;;30.03;16.83;;;15.00;1.00;;;;;;5093292;28;20955;-73
2022/10/20 15:38:44;;;;;;;29.90;17.10;;;15.00;1.00;;;;;;5095111;28;20714;-73
2022/10/20 15:41:14;;;;;;;32.47;17.17;;;14.90;1.00;;;;;;5087141;28;20444;-73
2022/10/20 15:43:41;;;;;;;31.83;17.67;;;14.90;1.00;;;;;;5080610;28;20429;-73
2022/10/20 15:46:09;;;;;;;36.30;17.27;;;14.90;1.00;;;;;;5091349;28;20563;-74
2022/10/20 15:48:40;;;;;;;34.17;17.73;;;14.90;1.00;;;;;;5076927;28;20484;-73
2022/10/20 15:51:20;;;;;;;32.70;17.73;;;14.80;1.00;;;;;;5089151;28;20474;-74
2022/10/20 15:53:48;;;;;;;31.93;18.10;;;14.80;1.00;;;;;;5085902;28;20440;-73
2022/10/20 15:56:14;;;;;;;30.33;17.30;;;14.80;1.00;;;;;;5079546;28;20396;-74
2022/10/20 15:58:52;;;;;;;34.57;18.80;;;14.80;1.00;;;;;;5089435;28;20415;-74
2022/10/20 16:01:20;;;;;;;25.87;17.53;;;14.80;1.00;;;;;;5085514;28;20429;-74
2022/10/20 16:03:46;;;;;;;35.20;18.23;;;14.70;1.00;;;;;;5086067;28;20481;-74
2022/10/20 16:06:17;;;;;;;27.07;17.77;;;14.70;1.00;;;;;;5091567;28;20421;-73
2022/10/20 16:08:52;;;;;;;30.00;19.07;;;14.60;1.00;;;;;;5076367;28;20465;-73
2022/10/20 16:11:19;;;;;;;38.70;19.60;;;14.60;1.00;;;;;;5078891;28;20427;-73
2022/10/20 16:13:45;;;;;;;43.87;19.13;;;14.60;1.00;;;;;;5082491;28;20826;-73
2022/10/20 16:16:16;;;;;;;35.90;19.93;;;14.50;1.00;;;;;;5082179;28;20432;-73
2022/10/20 16:18:46;;;;;;;32.03;19.73;;;14.50;1.00;;;;;;5089488;28;20476;-74
2022/10/20 16:21:16;;;;;;;35.23;18.83;;;14.50;1.00;;;;;;5081267;28;20411;-73
2022/10/20 16:24:04;;;;;;;29.50;18.00;;;14.50;1.00;;;;;;5095275;28;20479;-73
2022/10/20 16:26:29;;;;;;;45.40;20.87;;;14.40;1.00;;;;;;5075798;28;20877;-73
2022/10/20 16:28:55;;;;;;;34.10;18.83;;;14.40;1.00;;;;;;5085825;28;20432;-73
2022/10/20 16:31:21;;;;;;;36.03;20.13;;;14.40;1.00;;;;;;5077963;28;20186;-73
2022/10/20 16:33:47;;;;;;;35.37;19.30;;;14.30;1.00;;;;;;5087013;28;20178;-73
2022/10/20 16:36:15;;;;;;;34.30;19.80;;;14.20;1.00;;;;;;5092007;28;20498;-73
2022/10/20 16:38:41;;;;;;;38.00;20.33;;;14.20;1.00;;;;;;5081328;28;20440;-76
2022/10/20 16:41:13;;;;;;;50.20;20.60;;;14.20;1.00;;;;;;5086914;28;20428;-73
2022/10/20 16:43:40;;;;;;;40.40;21.83;;;14.10;1.00;;;;;;5077383;28;20899;-74
2022/10/20 16:46:07;;;;;;;40.40;19.73;;;14.10;1.00;;;;;;5080659;28;20966;-74
2022/10/20 16:48:34;;;;;;;36.27;20.83;;;14.10;1.00;;;;;;5080273;28;20439;-74
2022/10/20 16:51:05;;;;;;;31.30;20.17;;;14.10;1.00;;;;;;5076798;28;20395;-74
2022/10/20 16:53:54;;;;;;;32.70;20.47;;;14.10;1.00;;;;;;5079938;28;20429;-74
2022/10/20 16:56:21;;;;;;;36.63;19.87;;;14.00;1.00;;;;;;5088166;28;20436;-74